Columbus, Kansas
Current Conditions -  °F | °C
As of 10:53 AM on Friday 31 Oct 2014 (Local Time) from KJLN Reporting Station
Broken Clouds Broken Clouds  
Wind Chill: 34°   Ceiling: 2600
Heat Index: 42°   Visibility: 10mi
Dew Point: 31°   Wind: 17mph
Humidity: 65%   Direction: 360°N
Pressure: 30.42"   Gusts: 26mph
Location:  37.17°N, 94.84°W
Report Text: KJLN 311553Z 36015G23KT 10SM BKN026 06/M01 A3042 RMK AO2 PK WND 36027/1505 SLP304 T00561006 $
Loading
Personal Weather Stations






























Interactive Weather Map
Tropical Storm Tracking
New forecast layout! Learn more

10-Day Weather Forecast

Advertisements
Track Severe Weather on mobile